createdAt,value
2019-06-26T00:04:45.961Z,101437.30
2019-06-26T00:09:51.809Z,101441.28
2019-06-26T00:14:57.712Z,101445.19
2019-06-26T00:20:05.573Z,101438.12
2019-06-26T00:25:11.493Z,101419.66
2019-06-26T00:30:17.687Z,101405.96
2019-06-26T00:35:23.622Z,101433.72
2019-06-26T00:40:29.429Z,101469.67
2019-06-26T00:45:35.193Z,101463.56
2019-06-26T00:50:40.885Z,101473.25
2019-06-26T00:55:46.987Z,101464.02
2019-06-26T01:00:52.865Z,101484.05
2019-06-26T01:05:58.792Z,101459.61
2019-06-26T01:11:04.479Z,101453.01
2019-06-26T01:16:10.289Z,101453.06
2019-06-26T01:21:16.182Z,101461.16
2019-06-26T01:26:22.540Z,101473.16
2019-06-26T01:31:28.310Z,101473.84
2019-06-26T01:36:34.199Z,101476.01
2019-06-26T01:41:40.306Z,101476.25
2019-06-26T01:46:46.131Z,101482.56
2019-06-26T01:51:52.131Z,101474.98
2019-06-26T01:56:57.981Z,101475.21
2019-06-26T02:02:03.867Z,101473.80
2019-06-26T02:07:09.922Z,101473.95
2019-06-26T02:12:16.065Z,101463.77
2019-06-26T02:17:21.904Z,101461.98
2019-06-26T02:22:27.668Z,101445.40
2019-06-26T02:27:33.468Z,101422.00
2019-06-26T02:32:39.417Z,101351.62
2019-06-26T02:37:45.702Z,101348.69
2019-06-26T02:42:51.440Z,101354.36
2019-06-26T02:47:57.406Z,101350.56
2019-06-26T02:53:03.351Z,101342.31
2019-06-26T02:58:09.496Z,101335.80
2019-06-26T03:03:15.328Z,101322.94
2019-06-26T03:08:21.235Z,101318.80
2019-06-26T03:13:26.909Z,101324.20
2019-06-26T03:18:32.633Z,101335.09
2019-06-26T03:23:38.428Z,101328.74
2019-06-26T03:28:44.706Z,101321.33
2019-06-26T03:33:50.400Z,101309.59
2019-06-26T03:38:56.429Z,101298.25
2019-06-26T03:44:02.471Z,101292.40
2019-06-26T03:49:08.092Z,101280.06
2019-06-26T03:54:13.975Z,101296.30
2019-06-26T03:59:20.074Z,101283.34
2019-06-26T04:04:25.884Z,101288.18
2019-06-26T04:09:32.087Z,101283.84
2019-06-26T04:14:37.929Z,101277.46
2019-06-26T04:19:43.606Z,101315.41
2019-06-26T04:24:49.392Z,101337.78
2019-06-26T04:29:55.556Z,101347.13
2019-06-26T04:35:01.498Z,101353.81
2019-06-26T04:40:08.437Z,101359.34
2019-06-26T04:45:15.629Z,101351.36
2019-06-26T04:50:22.430Z,101378.98
2019-06-26T04:55:28.186Z,101389.91
2019-06-26T05:00:34.187Z,101382.88
2019-06-26T05:05:40.457Z,101385.39
2019-06-26T05:10:46.164Z,101381.69
2019-06-26T05:15:51.815Z,101369.91
2019-06-26T05:20:57.753Z,101377.38
2019-06-26T05:26:03.883Z,101373.88
2019-06-26T05:31:09.804Z,101346.59
2019-06-26T05:36:15.707Z,101358.52
2019-06-26T05:41:21.508Z,101361.91
2019-06-26T05:46:31.485Z,101364.77
2019-06-26T05:51:34.815Z,101362.23
2019-06-26T05:56:40.799Z,101366.98
2019-06-26T06:01:46.657Z,101368.03
2019-06-26T06:06:52.403Z,101375.98
2019-06-26T06:11:57.998Z,101376.58
2019-06-26T06:17:03.872Z,101379.28
2019-06-26T06:22:09.728Z,101381.47
2019-06-26T06:27:15.596Z,101381.77
2019-06-26T06:32:21.443Z,101377.95
2019-06-26T06:37:27.453Z,101374.61
2019-06-26T06:42:33.245Z,101377.42
2019-06-26T06:47:38.973Z,101371.63
2019-06-26T06:52:44.649Z,101369.73
2019-06-26T06:57:50.432Z,101375.80
2019-06-26T07:02:58.033Z,101375.03
2019-06-26T07:08:03.814Z,101373.13
2019-06-26T07:13:09.900Z,101372.31
2019-06-26T07:18:15.813Z,101366.55
2019-06-26T07:23:21.645Z,101361.34
2019-06-26T07:28:27.609Z,101365.17
2019-06-26T07:33:33.779Z,101373.16
2019-06-26T07:38:39.830Z,101380.28
2019-06-26T07:43:45.501Z,101372.28
2019-06-26T07:48:52.414Z,101381.89
2019-06-26T07:53:58.200Z,101378.86
2019-06-26T07:59:03.925Z,101389.27
2019-06-26T08:04:09.726Z,101396.08
2019-06-26T08:09:15.423Z,101390.85
2019-06-26T08:14:21.368Z,101391.97
2019-06-26T08:19:27.336Z,101410.42
2019-06-26T08:24:33.099Z,101412.64
2019-06-26T08:29:39.930Z,101409.79
2019-06-26T08:34:46.709Z,101418.46
2019-06-26T08:39:54.119Z,101417.89
2019-06-26T08:45:00.185Z,101426.23
2019-06-26T08:50:07.265Z,101414.38
2019-06-26T08:55:13.480Z,101417.37
2019-06-26T09:00:19.733Z,101418.63
2019-06-26T09:05:25.641Z,101418.70
2019-06-26T09:10:31.567Z,101429.91
2019-06-26T09:15:38.883Z,101429.54
2019-06-26T09:20:44.809Z,101422.05
2019-06-26T09:25:50.576Z,101417.61
2019-06-26T09:30:56.322Z,101415.83
2019-06-26T09:36:01.993Z,101417.52
2019-06-26T09:41:07.722Z,101413.88
2019-06-26T09:46:13.384Z,101410.88
2019-06-26T09:51:19.388Z,101421.94
2019-06-26T09:56:25.368Z,101421.72
2019-06-26T10:01:31.250Z,101418.36
2019-06-26T10:06:36.976Z,101423.48
2019-06-26T10:11:42.819Z,101408.91
2019-06-26T10:16:48.615Z,101418.71
2019-06-26T10:21:54.480Z,101417.33
2019-06-26T10:27:00.466Z,101413.56
2019-06-26T10:32:06.615Z,101400.85
2019-06-26T10:37:12.651Z,101405.71
2019-06-26T10:42:18.776Z,101405.20
2019-06-26T10:47:24.906Z,101391.25
2019-06-26T10:52:31.715Z,101390.14
2019-06-26T10:57:38.859Z,101384.12
2019-06-26T11:02:47.133Z,101372.22
2019-06-26T11:07:54.044Z,101373.84
2019-06-26T11:13:00.195Z,101371.31
2019-06-26T11:18:06.030Z,101365.41
2019-06-26T11:23:11.939Z,101371.52
2019-06-26T11:28:17.876Z,101362.36
2019-06-26T11:33:23.941Z,101363.05
2019-06-26T11:38:29.820Z,101358.94
2019-06-26T11:43:35.588Z,101347.62
2019-06-26T11:48:41.415Z,101344.58
2019-06-26T11:53:47.496Z,101342.80
2019-06-26T11:58:53.334Z,101337.88
2019-06-26T12:03:59.173Z,101342.77
2019-06-26T12:09:07.877Z,101340.12
2019-06-26T12:14:13.540Z,101329.47
2019-06-26T12:19:23.273Z,101345.58
2019-06-26T12:24:26.851Z,101328.56
2019-06-26T12:29:33.137Z,101334.05
2019-06-26T12:34:44.944Z,101333.58
2019-06-26T12:39:48.315Z,101324.49
2019-06-26T12:44:54.437Z,101329.11
2019-06-26T12:50:00.313Z,101316.53
2019-06-26T12:55:06.700Z,101314.58
2019-06-26T13:00:12.799Z,101317.53
2019-06-26T13:05:18.734Z,101302.14
2019-06-26T13:10:24.806Z,101304.47
2019-06-26T13:15:31.709Z,101298.70
2019-06-26T13:20:51.585Z,101300.75
2019-06-26T13:25:45.372Z,101297.79
2019-06-26T13:30:53.349Z,101286.44
2019-06-26T13:35:58.773Z,101282.11
2019-06-26T13:41:04.479Z,101277.65
2019-06-26T13:46:10.456Z,101276.81
2019-06-26T13:51:16.237Z,101275.78
2019-06-26T13:56:21.991Z,101260.37
2019-06-26T14:01:28.253Z,101265.13
2019-06-26T14:06:33.943Z,101266.40
2019-06-26T14:11:42.186Z,101254.95
2019-06-26T14:16:48.005Z,101257.82
2019-06-26T14:21:53.844Z,101249.01
2019-06-26T14:26:59.690Z,101247.67
2019-06-26T14:32:05.496Z,101241.67
2019-06-26T14:37:11.323Z,101236.89
2019-06-26T14:42:17.165Z,101227.70
2019-06-26T14:47:22.752Z,101249.27
2019-06-26T14:52:28.515Z,101231.50
2019-06-26T14:57:34.382Z,101222.17
2019-06-26T15:02:40.171Z,101215.76
2019-06-26T15:07:45.951Z,101217.92
2019-06-26T15:12:51.709Z,101224.13
2019-06-26T15:17:57.571Z,101225.75
2019-06-26T15:23:03.483Z,101222.94
2019-06-26T15:28:10.494Z,101217.27
2019-06-26T15:33:16.321Z,101217.52
2019-06-26T15:38:22.043Z,101224.94
2019-06-26T15:43:27.933Z,101226.21
2019-06-26T15:48:33.903Z,101226.21
2019-06-26T15:53:39.702Z,101227.36
2019-06-26T15:58:45.642Z,101229.12
2019-06-26T16:03:52.478Z,101244.81
2019-06-26T16:08:57.947Z,101244.81
2019-06-26T16:14:03.537Z,101241.91
2019-06-26T16:19:11.282Z,101236.94
2019-06-26T16:24:16.939Z,101257.73
2019-06-26T16:29:23.243Z,101234.80
2019-06-26T16:34:28.914Z,101244.50
2019-06-26T16:39:34.968Z,101237.10
2019-06-26T16:44:40.867Z,101239.88
2019-06-26T16:49:47.070Z,101259.05
2019-06-26T16:54:56.518Z,101260.55
2019-06-26T17:00:09.433Z,101258.48
2019-06-26T17:05:10.916Z,101280.27
2019-06-26T17:10:19.057Z,101284.52
2019-06-26T17:15:24.862Z,101258.25
2019-06-26T17:20:30.642Z,101268.33
2019-06-26T17:25:36.379Z,101286.00
2019-06-26T17:30:42.374Z,101288.42
2019-06-26T17:35:50.668Z,101289.65
2019-06-26T17:40:59.437Z,101296.00
2019-06-26T17:46:04.121Z,101309.30
2019-06-26T17:51:09.913Z,101293.42
2019-06-26T17:56:15.580Z,101287.27
2019-06-26T18:01:21.289Z,101295.75
2019-06-26T18:06:26.890Z,101301.20
2019-06-26T18:11:32.460Z,101309.09
2019-06-26T18:16:38.395Z,101326.95
2019-06-26T18:21:44.189Z,101335.60
2019-06-26T18:26:50.042Z,101331.52
2019-06-26T18:31:55.803Z,101344.64
2019-06-26T18:37:01.606Z,101343.09
2019-06-26T18:42:07.746Z,101356.45
2019-06-26T18:47:13.757Z,101361.05
2019-06-26T18:52:19.594Z,101364.06
2019-06-26T18:57:25.208Z,101350.91
2019-06-26T19:02:30.929Z,101393.97
2019-06-26T19:07:36.802Z,101408.14
2019-06-26T19:12:42.670Z,101388.41
2019-06-26T19:17:48.442Z,101398.16
2019-06-26T19:22:54.205Z,101402.98
2019-06-26T19:27:59.821Z,101410.64
2019-06-26T19:33:05.926Z,101402.33
2019-06-26T19:38:11.989Z,101407.70
2019-06-26T19:43:17.702Z,101399.53
2019-06-26T19:48:23.566Z,101415.59
2019-06-26T19:53:29.338Z,101400.41
2019-06-26T19:58:35.418Z,101409.11
2019-06-26T20:03:42.120Z,101407.27
2019-06-26T20:08:54.425Z,101415.16
2019-06-26T20:13:55.378Z,101426.53
2019-06-26T20:19:01.009Z,101418.61
2019-06-26T20:24:06.824Z,101414.80
2019-06-26T20:29:12.481Z,101421.00
2019-06-26T20:34:20.109Z,101430.08
2019-06-26T20:39:25.901Z,101444.26
2019-06-26T20:44:31.640Z,101454.13
2019-06-26T20:49:52.195Z,101456.02
2019-06-26T20:54:59.986Z,101472.44
2019-06-26T20:59:53.701Z,101474.97
2019-06-26T21:04:59.392Z,101467.03
2019-06-26T21:10:06.003Z,101460.44
2019-06-26T21:15:11.927Z,101453.42
2019-06-26T21:20:17.671Z,101450.45
2019-06-26T21:25:23.494Z,101426.45
2019-06-26T21:30:29.257Z,101424.39
2019-06-26T21:35:35.099Z,101436.10
2019-06-26T21:40:40.949Z,101430.42
2019-06-26T21:45:46.814Z,101434.01
2019-06-26T21:50:53.100Z,101477.63
2019-06-26T21:55:58.771Z,101496.12
2019-06-26T22:01:22.864Z,101498.89
2019-06-26T22:06:46.529Z,101529.91
2019-06-26T22:11:53.739Z,101511.79
2019-06-26T22:16:59.607Z,101507.45
2019-06-26T22:22:05.474Z,101497.22
2019-06-26T22:27:11.556Z,101495.06
2019-06-26T22:32:17.561Z,101488.36
2019-06-26T22:37:23.703Z,101477.52
2019-06-26T22:42:29.578Z,101471.27
2019-06-26T22:47:35.395Z,101459.59
2019-06-26T22:52:41.223Z,101462.00
2019-06-26T22:57:47.091Z,101446.80
2019-06-26T23:02:55.143Z,101478.05
2019-06-26T23:08:00.987Z,101452.47
2019-06-26T23:13:09.588Z,101470.41
2019-06-26T23:18:14.365Z,101478.80
2019-06-26T23:23:20.648Z,101485.38
2019-06-26T23:28:26.472Z,101480.75
2019-06-26T23:33:32.390Z,101478.70
2019-06-26T23:38:38.342Z,101477.18
2019-06-26T23:43:43.930Z,101480.63
2019-06-26T23:48:50.007Z,101473.50
2019-06-26T23:53:55.774Z,101461.09
2019-06-26T23:59:02.870Z,101469.38
